createdAt,value
2023-08-17T00:00:57.318Z,51.90
2023-08-17T00:01:57.362Z,53.79
2023-08-17T00:02:57.311Z,53.75
2023-08-17T00:03:57.317Z,53.34
2023-08-17T00:04:57.287Z,51.65
2023-08-17T00:05:57.285Z,54.31
2023-08-17T00:06:57.277Z,50.57
2023-08-17T00:07:57.270Z,52.85
2023-08-17T00:08:57.267Z,54.32
2023-08-17T00:09:57.240Z,53.95
2023-08-17T00:10:57.253Z,54.01
2023-08-17T00:11:57.240Z,53.82
2023-08-17T00:12:57.213Z,53.73
2023-08-17T00:13:57.218Z,54.07
2023-08-17T00:14:57.211Z,53.15
2023-08-17T00:15:57.239Z,54.92
2023-08-17T00:16:57.213Z,53.00
2023-08-17T00:17:57.236Z,53.21
2023-08-17T00:18:57.203Z,54.61
2023-08-17T00:19:57.184Z,54.98
2023-08-17T00:20:57.186Z,53.35
2023-08-17T00:21:57.179Z,53.56
2023-08-17T00:22:57.165Z,53.21
2023-08-17T00:23:57.156Z,53.18
2023-08-17T00:24:57.155Z,52.57
2023-08-17T00:25:57.161Z,52.20
2023-08-17T00:26:57.143Z,51.77
2023-08-17T00:27:57.114Z,51.73
2023-08-17T00:28:57.127Z,48.68
2023-08-17T00:29:57.110Z,51.64
2023-08-17T00:30:57.114Z,48.90
2023-08-17T00:31:57.143Z,48.92
2023-08-17T00:32:57.150Z,47.72
2023-08-17T00:33:57.089Z,46.61
2023-08-17T00:34:57.076Z,48.53
2023-08-17T00:35:57.082Z,47.53
2023-08-17T00:36:57.112Z,47.09
2023-08-17T00:37:57.067Z,47.55
2023-08-17T00:38:57.050Z,47.94
2023-08-17T00:39:57.042Z,47.27
2023-08-17T00:40:57.028Z,49.46
2023-08-17T00:41:57.039Z,46.03
2023-08-17T00:42:57.053Z,45.57
2023-08-17T00:43:57.022Z,44.89
2023-08-17T00:44:57.021Z,46.63
2023-08-17T00:45:57.061Z,44.79
2023-08-17T00:46:57.009Z,44.57
2023-08-17T00:47:57.037Z,47.34
2023-08-17T00:48:57.014Z,49.47
2023-08-17T00:49:56.975Z,47.01
2023-08-17T00:50:56.968Z,46.10
2023-08-17T00:51:56.961Z,45.99
2023-08-17T00:52:57.005Z,43.86
2023-08-17T00:53:56.942Z,48.85
2023-08-17T00:54:56.934Z,48.20
2023-08-17T00:55:56.975Z,45.20
2023-08-17T00:56:56.925Z,46.65
2023-08-17T00:57:56.921Z,48.00
2023-08-17T00:58:56.900Z,45.26
2023-08-17T01:00:04.673Z,44.79
2023-08-17T01:00:58.911Z,42.59
2023-08-17T01:01:56.907Z,42.97
2023-08-17T01:02:56.931Z,45.10
2023-08-17T01:03:56.865Z,49.41
2023-08-17T01:04:56.911Z,48.61
2023-08-17T01:05:56.866Z,49.95
2023-08-17T01:06:56.863Z,48.86
2023-08-17T01:07:56.862Z,47.63
2023-08-17T01:08:56.854Z,44.57
2023-08-17T01:09:56.828Z,47.99
2023-08-17T01:10:56.834Z,49.20
2023-08-17T01:11:56.816Z,46.90
2023-08-17T01:12:56.835Z,47.33
2023-08-17T01:13:56.823Z,50.99
2023-08-17T01:14:56.807Z,48.02
2023-08-17T01:15:56.818Z,47.74
2023-08-17T01:16:56.800Z,46.72
2023-08-17T01:17:56.828Z,43.10
2023-08-17T01:18:56.865Z,42.29
2023-08-17T01:19:56.789Z,43.48
2023-08-17T01:20:56.768Z,42.70
2023-08-17T01:21:56.766Z,44.57
2023-08-17T01:22:56.771Z,46.91
2023-08-17T01:23:56.753Z,48.75
2023-08-17T01:24:56.759Z,48.06
2023-08-17T01:25:56.722Z,46.87
2023-08-17T01:26:56.728Z,44.58
2023-08-17T01:27:56.722Z,46.83
2023-08-17T01:28:56.718Z,47.25
2023-08-17T01:29:56.722Z,50.32
2023-08-17T01:30:56.733Z,48.34
2023-08-17T01:31:56.706Z,47.35
2023-08-17T01:32:56.718Z,47.51
2023-08-17T01:33:56.699Z,49.36
2023-08-17T01:34:56.681Z,49.25
2023-08-17T01:35:56.665Z,51.84
2023-08-17T01:36:56.655Z,47.22
2023-08-17T01:37:56.651Z,47.95
2023-08-17T01:38:56.678Z,45.93
2023-08-17T01:39:56.674Z,43.90
2023-08-17T01:40:56.630Z,46.20
2023-08-17T01:41:56.623Z,50.92
2023-08-17T01:42:56.629Z,48.69
2023-08-17T01:43:56.633Z,46.60
2023-08-17T01:44:56.620Z,50.58
2023-08-17T01:45:56.618Z,46.82
2023-08-17T01:46:56.629Z,44.67
2023-08-17T01:47:56.648Z,47.78
2023-08-17T01:48:56.580Z,47.31
2023-08-17T01:49:56.570Z,47.94
2023-08-17T01:50:56.564Z,43.27
2023-08-17T01:51:56.582Z,50.01
2023-08-17T01:52:56.561Z,45.60
2023-08-17T01:53:56.538Z,47.75
2023-08-17T01:54:56.540Z,47.56
2023-08-17T01:55:56.525Z,46.27
2023-08-17T01:56:56.517Z,47.91
2023-08-17T01:57:56.553Z,44.73
2023-08-17T01:58:56.506Z,43.78
2023-08-17T01:59:56.504Z,45.40
2023-08-17T02:00:56.519Z,44.02
2023-08-17T02:01:56.499Z,49.32
2023-08-17T02:02:56.546Z,42.26
2023-08-17T02:03:56.482Z,45.27
2023-08-17T02:04:56.471Z,47.40
2023-08-17T02:05:56.468Z,49.18
2023-08-17T02:06:56.460Z,47.57
2023-08-17T02:07:56.449Z,45.94
2023-08-17T02:08:56.950Z,53.12
2023-08-17T02:09:56.437Z,49.40
2023-08-17T02:10:56.428Z,50.37
2023-08-17T02:11:56.431Z,48.65
2023-08-17T02:13:02.145Z,47.45
2023-08-17T02:13:58.416Z,46.41
2023-08-17T02:14:56.407Z,48.11
2023-08-17T02:15:56.399Z,48.98
2023-08-17T02:16:56.451Z,47.63
2023-08-17T02:17:56.434Z,48.07
2023-08-17T02:18:56.377Z,46.33
2023-08-17T02:19:56.371Z,50.97
2023-08-17T02:20:56.356Z,46.55
2023-08-17T02:21:56.356Z,50.33
2023-08-17T02:22:56.357Z,51.68
2023-08-17T02:23:56.354Z,46.42
2023-08-17T02:24:56.329Z,48.45
2023-08-17T02:25:56.353Z,50.19
2023-08-17T02:26:56.327Z,50.44
2023-08-17T02:27:56.332Z,51.35
2023-08-17T02:28:56.308Z,52.72
2023-08-17T02:29:56.302Z,51.12
2023-08-17T02:30:56.368Z,51.48
2023-08-17T02:31:56.277Z,49.90
2023-08-17T02:32:56.325Z,51.64
2023-08-17T02:33:56.277Z,50.02
2023-08-17T02:34:56.270Z,52.22
2023-08-17T02:35:56.324Z,50.34
2023-08-17T02:36:56.247Z,49.53
2023-08-17T02:37:56.252Z,50.73
2023-08-17T02:38:56.266Z,50.47
2023-08-17T02:39:56.272Z,47.01
2023-08-17T02:40:56.220Z,50.31
2023-08-17T02:41:56.222Z,53.33
2023-08-17T02:42:56.192Z,49.45
2023-08-17T02:43:56.228Z,50.30
2023-08-17T02:44:56.187Z,50.63
2023-08-17T02:45:56.224Z,50.69
2023-08-17T02:46:56.177Z,48.66
2023-08-17T02:47:56.202Z,50.04
2023-08-17T02:48:56.173Z,51.84
2023-08-17T02:49:56.154Z,52.23
2023-08-17T02:50:56.165Z,49.63
2023-08-17T02:51:56.144Z,52.41
2023-08-17T02:52:56.134Z,51.53
2023-08-17T02:53:56.117Z,51.08
2023-08-17T02:54:56.128Z,47.51
2023-08-17T02:55:56.138Z,49.85
2023-08-17T02:56:56.102Z,52.35
2023-08-17T02:57:56.109Z,52.93
2023-08-17T02:58:56.088Z,53.85
2023-08-17T02:59:56.075Z,52.26
2023-08-17T03:00:56.092Z,52.15
2023-08-17T03:01:56.109Z,52.81
2023-08-17T03:02:56.084Z,54.78
2023-08-17T03:03:56.078Z,52.57
2023-08-17T03:04:56.056Z,53.35
2023-08-17T03:05:56.066Z,52.91
2023-08-17T03:06:56.033Z,53.35
2023-08-17T03:07:56.033Z,51.76
2023-08-17T03:08:56.009Z,53.34
2023-08-17T03:09:56.026Z,52.52
2023-08-17T03:10:55.998Z,53.08
2023-08-17T03:11:57.008Z,51.76
2023-08-17T03:12:55.981Z,54.49
2023-08-17T03:13:55.977Z,52.78
2023-08-17T03:14:55.982Z,53.79
2023-08-17T03:15:55.973Z,53.20
2023-08-17T03:16:55.983Z,52.16
2023-08-17T03:17:55.996Z,55.13
2023-08-17T03:18:55.936Z,55.52
2023-08-17T03:19:55.944Z,54.62
2023-08-17T03:20:55.933Z,54.13
2023-08-17T03:21:55.936Z,54.53
2023-08-17T03:22:55.908Z,54.68
2023-08-17T03:23:55.917Z,53.29
2023-08-17T03:24:56.010Z,53.72
2023-08-17T03:25:55.887Z,54.05
2023-08-17T03:26:55.883Z,54.31
2023-08-17T03:27:55.880Z,54.80
2023-08-17T03:28:55.872Z,54.31
2023-08-17T03:29:55.866Z,55.59
2023-08-17T03:30:55.918Z,56.11
2023-08-17T03:31:56.904Z,55.47
2023-08-17T03:32:56.880Z,56.42
2023-08-17T03:33:55.832Z,56.28
2023-08-17T03:34:55.853Z,56.23
2023-08-17T03:35:55.848Z,56.64
2023-08-17T03:36:55.980Z,56.09
2023-08-17T03:37:55.821Z,58.45
2023-08-17T03:38:55.806Z,56.35
2023-08-17T03:39:55.815Z,56.56
2023-08-17T03:40:55.804Z,56.96
2023-08-17T03:41:55.795Z,56.41
2023-08-17T03:42:55.785Z,55.43
2023-08-17T03:43:55.769Z,56.57
2023-08-17T03:44:55.762Z,56.14
2023-08-17T03:45:55.805Z,57.42
2023-08-17T03:46:55.758Z,57.02
2023-08-17T03:47:55.769Z,56.05
2023-08-17T03:48:55.735Z,57.28
2023-08-17T03:49:55.736Z,55.30
2023-08-17T03:50:55.744Z,54.97
2023-08-17T03:51:55.734Z,56.07
2023-08-17T03:52:55.714Z,54.92
2023-08-17T03:53:55.693Z,56.61
2023-08-17T03:54:55.701Z,56.09
2023-08-17T03:55:55.712Z,55.03
2023-08-17T03:56:55.678Z,55.69
2023-08-17T03:57:55.668Z,55.30
2023-08-17T03:58:55.664Z,56.01
2023-08-17T03:59:55.658Z,55.95
2023-08-17T04:00:55.674Z,54.77
2023-08-17T04:01:55.667Z,55.02
2023-08-17T04:02:55.676Z,56.32
2023-08-17T04:03:55.629Z,54.72
2023-08-17T04:04:55.695Z,56.41
2023-08-17T04:05:55.640Z,57.31
2023-08-17T04:06:55.896Z,57.51
2023-08-17T04:07:55.617Z,56.73
2023-08-17T04:08:55.603Z,56.92
2023-08-17T04:09:55.596Z,56.88
2023-08-17T04:10:55.600Z,56.85
2023-08-17T04:11:55.575Z,57.56
2023-08-17T04:12:55.575Z,57.32
2023-08-17T04:13:55.578Z,55.73
2023-08-17T04:14:55.565Z,55.69
2023-08-17T04:15:55.622Z,55.85
2023-08-17T04:16:55.626Z,57.02
2023-08-17T04:17:55.659Z,55.07
2023-08-17T04:18:55.623Z,57.30
2023-08-17T04:19:55.528Z,58.04
2023-08-17T04:20:55.745Z,58.00
2023-08-17T04:21:55.524Z,58.99
2023-08-17T04:22:55.519Z,58.11
2023-08-17T04:23:55.507Z,57.75
2023-08-17T04:24:55.493Z,59.07
2023-08-17T04:25:55.477Z,57.62
2023-08-17T04:26:55.471Z,58.12
2023-08-17T04:27:55.485Z,57.54
2023-08-17T04:28:55.484Z,57.34
2023-08-17T04:29:55.452Z,56.94
2023-08-17T04:30:55.449Z,58.64
2023-08-17T04:31:55.502Z,57.31
2023-08-17T04:32:55.486Z,59.22
2023-08-17T04:33:55.516Z,58.10
2023-08-17T04:34:55.432Z,57.82
2023-08-17T04:35:55.423Z,57.69
2023-08-17T04:36:55.399Z,58.94
2023-08-17T04:37:55.396Z,57.08
2023-08-17T04:38:55.413Z,57.95
2023-08-17T04:39:55.390Z,57.62
2023-08-17T04:40:55.544Z,58.29
2023-08-17T04:41:55.392Z,58.84
2023-08-17T04:42:55.370Z,58.36
2023-08-17T04:43:55.352Z,58.17
2023-08-17T04:44:55.354Z,57.49
2023-08-17T04:45:55.390Z,57.87
2023-08-17T04:46:55.340Z,58.12
2023-08-17T04:47:55.346Z,58.45
2023-08-17T04:48:55.323Z,57.84
2023-08-17T04:49:55.326Z,57.70
2023-08-17T04:50:55.304Z,57.90
2023-08-17T04:51:55.319Z,58.67
2023-08-17T04:52:55.329Z,59.31
2023-08-17T04:53:55.337Z,58.66
2023-08-17T04:54:55.329Z,59.73
2023-08-17T04:55:55.292Z,59.85
2023-08-17T04:56:55.271Z,57.88
2023-08-17T04:57:55.277Z,59.12
2023-08-17T04:58:55.287Z,58.69
2023-08-17T04:59:55.285Z,58.38
2023-08-17T05:00:55.336Z,57.79
2023-08-17T05:01:55.236Z,58.96
2023-08-17T05:02:55.334Z,58.64
2023-08-17T05:03:55.288Z,57.70
2023-08-17T05:04:55.226Z,57.32
2023-08-17T05:05:55.227Z,57.78
2023-08-17T05:06:55.206Z,58.18
2023-08-17T05:07:55.211Z,58.86
2023-08-17T05:08:55.220Z,57.63
2023-08-17T05:09:55.181Z,58.75
2023-08-17T05:10:55.225Z,57.72
2023-08-17T05:11:55.175Z,58.32
2023-08-17T05:12:55.172Z,57.64
2023-08-17T05:13:55.172Z,57.82
2023-08-17T05:14:55.186Z,57.00
2023-08-17T05:15:55.236Z,57.39
2023-08-17T05:16:55.142Z,57.51
2023-08-17T05:17:55.200Z,57.13
2023-08-17T05:18:55.142Z,58.51
2023-08-17T05:19:55.129Z,57.85
2023-08-17T05:20:55.122Z,58.23
2023-08-17T05:21:55.125Z,57.91
2023-08-17T05:22:55.108Z,57.63
2023-08-17T05:23:55.098Z,57.03
2023-08-17T05:24:55.086Z,57.25
2023-08-17T05:25:55.159Z,59.01
2023-08-17T05:26:55.081Z,58.92
2023-08-17T05:27:55.074Z,57.27
2023-08-17T05:28:55.072Z,57.58
2023-08-17T05:29:55.066Z,59.77
2023-08-17T05:30:55.092Z,57.91
2023-08-17T05:31:55.053Z,58.24
2023-08-17T05:32:55.110Z,57.94
2023-08-17T05:33:55.050Z,58.24
2023-08-17T05:34:55.017Z,58.35
2023-08-17T05:35:56.054Z,57.43
2023-08-17T05:36:55.008Z,56.96
2023-08-17T05:37:55.037Z,57.19
2023-08-17T05:38:54.995Z,56.86
2023-08-17T05:39:55.000Z,56.89
2023-08-17T05:40:56.004Z,57.57
2023-08-17T05:41:54.971Z,57.34
2023-08-17T05:42:54.982Z,57.61
2023-08-17T05:43:54.965Z,56.83
2023-08-17T05:44:54.968Z,57.31
2023-08-17T05:45:54.949Z,58.74
2023-08-17T05:46:55.022Z,58.87
2023-08-17T05:47:55.041Z,58.53
2023-08-17T05:48:55.182Z,58.90
2023-08-17T05:49:54.937Z,58.30
2023-08-17T05:50:55.202Z,57.46
2023-08-17T05:51:55.531Z,57.56
2023-08-17T05:52:56.624Z,58.40
2023-08-17T05:53:55.928Z,58.11
2023-08-17T05:54:54.888Z,56.97
2023-08-17T05:55:54.889Z,57.26
2023-08-17T05:56:54.918Z,56.09
2023-08-17T05:57:54.864Z,56.30
2023-08-17T05:58:54.877Z,56.02
2023-08-17T05:59:54.883Z,56.64
2023-08-17T06:00:54.862Z,56.10
2023-08-17T06:01:54.870Z,57.21
2023-08-17T06:02:54.890Z,55.88
2023-08-17T06:03:54.891Z,56.61
2023-08-17T06:04:54.823Z,57.86
2023-08-17T06:05:55.394Z,59.07
2023-08-17T06:06:54.821Z,57.67
2023-08-17T06:07:54.841Z,57.42
2023-08-17T06:08:54.791Z,57.57
2023-08-17T06:09:54.799Z,56.81
2023-08-17T06:10:54.787Z,56.67
2023-08-17T06:11:54.795Z,57.10
2023-08-17T06:12:54.864Z,56.25
2023-08-17T06:13:54.762Z,57.57
2023-08-17T06:14:54.764Z,57.17
2023-08-17T06:15:57.784Z,57.49
2023-08-17T06:16:54.808Z,56.73
2023-08-17T06:17:54.756Z,58.14
2023-08-17T06:18:54.730Z,58.59
2023-08-17T06:19:54.716Z,56.32
2023-08-17T06:20:54.823Z,58.33
2023-08-17T06:21:54.711Z,57.08
2023-08-17T06:22:54.720Z,57.15
2023-08-17T06:23:54.704Z,57.65
2023-08-17T06:24:54.690Z,56.98
2023-08-17T06:25:54.691Z,55.95
2023-08-17T06:26:54.675Z,57.72
2023-08-17T06:27:54.667Z,57.45
2023-08-17T06:28:54.661Z,57.51
2023-08-17T06:29:54.652Z,56.95
2023-08-17T06:30:54.679Z,56.59
2023-08-17T06:31:54.646Z,57.76
2023-08-17T06:32:54.655Z,58.30
2023-08-17T06:33:54.631Z,56.89
2023-08-17T06:34:54.633Z,57.51
2023-08-17T06:35:54.611Z,58.44
2023-08-17T06:36:54.633Z,57.79
2023-08-17T06:37:54.587Z,57.83
2023-08-17T06:38:55.612Z,56.56
2023-08-17T06:39:54.584Z,58.69
2023-08-17T06:40:54.595Z,57.24
2023-08-17T06:41:54.600Z,56.17
2023-08-17T06:42:54.577Z,57.27
2023-08-17T06:43:54.560Z,56.07
2023-08-17T06:44:54.582Z,57.85
2023-08-17T06:45:54.580Z,58.11
2023-08-17T06:46:54.550Z,57.97
2023-08-17T06:47:54.546Z,57.40
2023-08-17T06:48:54.523Z,58.94
2023-08-17T06:49:54.529Z,57.97
2023-08-17T06:50:54.534Z,58.04
2023-08-17T06:51:54.518Z,57.22
2023-08-17T06:52:54.520Z,57.07
2023-08-17T06:53:54.496Z,55.47
2023-08-17T06:54:54.491Z,57.67
2023-08-17T06:55:54.527Z,56.64
2023-08-17T06:56:54.471Z,55.50
2023-08-17T06:57:54.456Z,56.18
2023-08-17T06:58:54.460Z,57.79
2023-08-17T06:59:54.455Z,56.69
2023-08-17T07:00:54.456Z,56.09
2023-08-17T07:01:54.508Z,56.43
2023-08-17T07:02:57.003Z,56.07
2023-08-17T07:03:55.424Z,55.95
2023-08-17T07:04:54.449Z,55.26
2023-08-17T07:05:54.432Z,56.27
2023-08-17T07:06:54.406Z,56.15
2023-08-17T07:07:55.408Z,56.10
2023-08-17T07:08:54.425Z,57.53
2023-08-17T07:09:54.385Z,55.36
2023-08-17T07:10:54.408Z,56.29
2023-08-17T07:11:54.375Z,56.68
2023-08-17T07:12:54.366Z,56.60
2023-08-17T07:13:54.358Z,57.40
2023-08-17T07:14:54.358Z,55.67
2023-08-17T07:15:54.372Z,56.35
2023-08-17T07:16:54.357Z,57.06
2023-08-17T07:17:54.353Z,56.46
2023-08-17T07:18:54.325Z,54.64
2023-08-17T07:20:14.608Z,56.46
2023-08-17T07:20:58.839Z,56.95
2023-08-17T07:21:54.336Z,55.99
2023-08-17T07:22:54.299Z,56.65
2023-08-17T07:23:54.308Z,56.89
2023-08-17T07:24:54.279Z,55.79
2023-08-17T07:25:54.321Z,53.98
2023-08-17T07:26:54.283Z,56.45
2023-08-17T07:27:54.257Z,57.18
2023-08-17T07:28:54.268Z,57.11
2023-08-17T07:29:54.273Z,55.89
2023-08-17T07:30:54.259Z,57.49
2023-08-17T07:31:54.272Z,57.72
2023-08-17T07:32:54.307Z,56.27
2023-08-17T07:33:54.221Z,56.34
2023-08-17T07:34:54.214Z,56.68
2023-08-17T07:35:54.219Z,55.91
2023-08-17T07:36:54.204Z,55.12
2023-08-17T07:38:07.253Z,53.80
2023-08-17T07:38:56.188Z,55.28
2023-08-17T07:39:54.198Z,56.40
2023-08-17T07:40:54.164Z,55.61
2023-08-17T07:41:54.189Z,54.90
2023-08-17T07:42:54.174Z,55.83
2023-08-17T07:43:54.141Z,56.19
2023-08-17T07:44:54.159Z,56.04
2023-08-17T07:45:54.167Z,56.63
2023-08-17T07:46:54.124Z,55.88
2023-08-17T07:47:54.170Z,56.02
2023-08-17T07:48:54.402Z,56.86
2023-08-17T07:49:54.110Z,56.14
2023-08-17T07:50:54.096Z,55.18
2023-08-17T07:51:54.087Z,55.24
2023-08-17T07:52:54.083Z,54.04
2023-08-17T07:53:54.101Z,56.70
2023-08-17T07:54:54.076Z,55.92
2023-08-17T07:55:56.116Z,54.53
2023-08-17T07:56:54.103Z,54.41
2023-08-17T07:57:54.069Z,54.95
2023-08-17T07:58:54.044Z,54.59
2023-08-17T07:59:54.045Z,53.04
2023-08-17T08:00:54.029Z,54.81
2023-08-17T08:01:54.074Z,55.89
2023-08-17T08:02:54.095Z,54.93
2023-08-17T08:03:54.037Z,53.97
2023-08-17T08:04:54.065Z,55.72
2023-08-17T08:05:53.997Z,54.89
2023-08-17T08:06:53.990Z,54.28
2023-08-17T08:07:54.001Z,56.33
2023-08-17T08:08:53.994Z,55.85
2023-08-17T08:09:53.976Z,54.31
2023-08-17T08:10:53.962Z,53.50
2023-08-17T08:11:53.958Z,54.51
2023-08-17T08:12:53.953Z,54.18
2023-08-17T08:13:53.971Z,53.96
2023-08-17T08:14:53.943Z,54.12
2023-08-17T08:15:53.965Z,54.01
2023-08-17T08:16:53.943Z,55.45
2023-08-17T08:17:53.957Z,55.06
2023-08-17T08:18:54.222Z,53.95
2023-08-17T08:19:53.925Z,54.15
2023-08-17T08:20:53.900Z,55.57
2023-08-17T08:21:53.893Z,56.95
2023-08-17T08:22:53.885Z,57.03
2023-08-17T08:23:53.880Z,56.07
2023-08-17T08:24:53.911Z,54.88
2023-08-17T08:25:53.864Z,56.71
2023-08-17T08:26:53.868Z,55.96
2023-08-17T08:27:53.869Z,57.20
2023-08-17T08:28:53.841Z,57.13
2023-08-17T08:29:53.840Z,57.14
2023-08-17T08:30:53.870Z,56.62
2023-08-17T08:31:53.834Z,56.85
2023-08-17T08:32:53.868Z,56.20
2023-08-17T08:33:53.813Z,56.94
2023-08-17T08:34:53.813Z,57.02
2023-08-17T08:35:53.833Z,56.86
2023-08-17T08:36:53.804Z,56.00
2023-08-17T08:37:53.794Z,55.81
2023-08-17T08:38:53.806Z,57.64
2023-08-17T08:39:53.782Z,56.23
2023-08-17T08:40:53.779Z,54.77
2023-08-17T08:41:53.781Z,54.32
2023-08-17T08:42:53.772Z,54.95
2023-08-17T08:43:53.746Z,55.43
2023-08-17T08:44:53.879Z,54.73
2023-08-17T08:45:53.807Z,53.99
2023-08-17T08:46:53.779Z,55.38
2023-08-17T08:47:53.772Z,55.23
2023-08-17T08:48:53.716Z,55.06
2023-08-17T08:49:53.717Z,55.77
2023-08-17T08:50:53.710Z,53.65
2023-08-17T08:51:53.743Z,65.02
2023-08-17T08:52:53.688Z,57.57
2023-08-17T08:53:53.700Z,56.20
2023-08-17T08:54:53.670Z,55.67
2023-08-17T08:55:53.671Z,54.17
2023-08-17T08:56:53.659Z,53.88
2023-08-17T08:57:53.674Z,54.88
2023-08-17T08:58:54.834Z,55.21
2023-08-17T08:59:58.240Z,54.32
2023-08-17T09:00:54.670Z,54.62
2023-08-17T09:01:53.656Z,53.98
2023-08-17T09:02:53.685Z,54.36
2023-08-17T09:03:53.624Z,53.04
2023-08-17T09:04:53.637Z,52.81
2023-08-17T09:05:53.605Z,54.23
2023-08-17T09:06:53.598Z,53.33
2023-08-17T09:07:53.605Z,53.88
2023-08-17T09:08:53.603Z,54.19
2023-08-17T09:09:53.578Z,55.20
2023-08-17T09:10:53.576Z,53.96
2023-08-17T09:11:53.574Z,54.65
2023-08-17T09:12:53.966Z,54.31
2023-08-17T09:13:54.039Z,51.91
2023-08-17T09:14:57.317Z,54.48
2023-08-17T09:15:54.531Z,53.61
2023-08-17T09:16:53.594Z,53.13
2023-08-17T09:17:53.556Z,53.79
2023-08-17T09:18:53.538Z,52.54
2023-08-17T09:19:53.517Z,52.96
2023-08-17T09:20:53.534Z,51.89
2023-08-17T09:21:53.507Z,52.13
2023-08-17T09:22:54.512Z,53.08
2023-08-17T09:23:58.884Z,51.05
2023-08-17T09:24:54.496Z,53.08
2023-08-17T09:25:53.483Z,54.55
2023-08-17T09:26:53.485Z,52.43
2023-08-17T09:27:53.463Z,54.25
2023-08-17T09:28:53.449Z,54.35
2023-08-17T09:29:53.448Z,53.36
2023-08-17T09:30:53.517Z,54.11
2023-08-17T09:31:53.432Z,54.71
2023-08-17T09:32:53.474Z,54.57
2023-08-17T09:33:53.409Z,54.59
2023-08-17T09:34:53.395Z,54.72
2023-08-17T09:35:58.407Z,53.13
2023-08-17T09:36:55.384Z,54.15
2023-08-17T09:37:53.392Z,53.14
2023-08-17T09:38:53.387Z,55.01
2023-08-17T09:39:53.371Z,57.29
2023-08-17T09:40:53.362Z,55.70
2023-08-17T09:41:53.351Z,54.39
2023-08-17T09:42:53.354Z,53.32
2023-08-17T09:43:53.378Z,55.23
2023-08-17T09:44:53.351Z,54.36
2023-08-17T09:45:53.326Z,52.62
2023-08-17T09:46:53.360Z,51.88
2023-08-17T09:47:53.344Z,53.80
2023-08-17T09:48:53.299Z,55.57
2023-08-17T09:49:53.290Z,55.06
2023-08-17T09:50:53.296Z,54.11
2023-08-17T09:51:53.270Z,53.93
2023-08-17T09:52:53.281Z,52.57
2023-08-17T09:53:53.286Z,52.71
2023-08-17T09:54:53.266Z,52.79
2023-08-17T09:55:53.247Z,52.52
2023-08-17T09:56:53.244Z,52.27
2023-08-17T09:57:53.290Z,52.49
2023-08-17T09:58:53.221Z,52.30
2023-08-17T09:59:55.800Z,51.57
2023-08-17T10:00:54.236Z,51.92
2023-08-17T10:02:54.230Z,53.83
2023-08-17T10:03:53.182Z,53.38
2023-08-17T10:04:53.240Z,52.12
2023-08-17T10:05:55.663Z,53.13
2023-08-17T10:06:54.305Z,53.28
2023-08-17T10:07:53.177Z,51.29
2023-08-17T10:08:53.164Z,54.33
2023-08-17T10:09:53.151Z,53.65
2023-08-17T10:10:56.442Z,50.73
2023-08-17T10:11:55.738Z,51.03
2023-08-17T10:12:54.127Z,54.14
2023-08-17T10:13:53.116Z,51.96
2023-08-17T10:14:53.108Z,53.04
2023-08-17T10:15:53.112Z,50.36
2023-08-17T10:16:53.134Z,51.43
2023-08-17T10:17:55.792Z,50.12
2023-08-17T10:18:54.095Z,51.86
2023-08-17T10:19:53.193Z,52.56
2023-08-17T10:20:53.078Z,52.15
2023-08-17T10:21:53.054Z,51.82
2023-08-17T10:22:53.720Z,53.81
2023-08-17T10:23:54.975Z,52.98
2023-08-17T10:24:54.037Z,54.33
2023-08-17T10:25:53.051Z,53.66
2023-08-17T10:26:54.886Z,53.00
2023-08-17T10:28:00.067Z,52.92
2023-08-17T10:28:54.009Z,50.53
2023-08-17T10:29:53.003Z,52.21
2023-08-17T10:30:53.021Z,50.80
2023-08-17T10:31:53.022Z,51.97
2023-08-17T10:32:53.046Z,51.12
2023-08-17T10:33:52.965Z,50.82
2023-08-17T10:34:53.016Z,52.87
2023-08-17T10:35:52.960Z,53.25
2023-08-17T10:36:52.958Z,52.75
2023-08-17T10:37:52.954Z,52.78
2023-08-17T10:38:52.926Z,51.65
2023-08-17T10:39:52.921Z,51.71
2023-08-17T10:40:52.985Z,52.54
2023-08-17T10:41:52.906Z,53.46
2023-08-17T10:42:52.934Z,51.41
2023-08-17T10:43:52.909Z,52.58
2023-08-17T10:44:52.881Z,52.25
2023-08-17T10:45:52.897Z,51.19
2023-08-17T10:46:52.884Z,53.63
2023-08-17T10:47:52.923Z,51.85
2023-08-17T10:48:52.858Z,52.17
2023-08-17T10:49:52.857Z,51.88
2023-08-17T10:50:52.842Z,52.78
2023-08-17T10:51:52.845Z,51.72
2023-08-17T10:52:52.846Z,53.82
2023-08-17T10:53:52.826Z,54.03
2023-08-17T10:54:52.853Z,52.99
2023-08-17T10:55:53.306Z,51.87
2023-08-17T10:56:53.808Z,53.25
2023-08-17T10:57:52.808Z,52.76
2023-08-17T10:58:52.804Z,52.28
2023-08-17T10:59:52.793Z,53.92
2023-08-17T11:00:52.774Z,52.68
2023-08-17T11:01:52.849Z,53.22
2023-08-17T11:02:52.821Z,52.15
2023-08-17T11:03:52.772Z,51.61
2023-08-17T11:04:52.775Z,52.97
2023-08-17T11:05:52.735Z,53.54
2023-08-17T11:06:52.760Z,51.22
2023-08-17T11:07:52.740Z,51.10
2023-08-17T11:08:52.752Z,50.97
2023-08-17T11:09:52.721Z,52.36
2023-08-17T11:10:52.703Z,51.66
2023-08-17T11:11:52.701Z,53.08
2023-08-17T11:12:53.469Z,52.48
2023-08-17T11:13:56.711Z,53.42
2023-08-17T11:14:53.672Z,50.24
2023-08-17T11:15:52.708Z,52.75
2023-08-17T11:16:52.666Z,52.76
2023-08-17T11:17:52.678Z,51.19
2023-08-17T11:18:52.740Z,50.91
2023-08-17T11:19:52.648Z,52.45
2023-08-17T11:20:52.629Z,51.11
2023-08-17T11:21:52.622Z,52.86
2023-08-17T11:22:52.646Z,51.52
2023-08-17T11:23:52.642Z,51.80
2023-08-17T11:24:52.623Z,52.12
2023-08-17T11:25:52.603Z,50.35
2023-08-17T11:26:52.599Z,51.20
2023-08-17T11:27:52.587Z,52.30
2023-08-17T11:28:52.589Z,52.36
2023-08-17T11:29:52.572Z,52.72
2023-08-17T11:30:52.566Z,50.59
2023-08-17T11:31:52.581Z,53.88
2023-08-17T11:32:54.120Z,52.43
2023-08-17T11:33:55.738Z,51.43
2023-08-17T11:35:53.537Z,53.04
2023-08-17T11:36:52.576Z,52.04
2023-08-17T11:37:52.521Z,52.75
2023-08-17T11:38:52.510Z,52.39
2023-08-17T11:39:52.528Z,53.23
2023-08-17T11:40:52.490Z,52.70
2023-08-17T11:41:52.522Z,51.39
2023-08-17T11:42:52.475Z,52.24
2023-08-17T11:43:52.473Z,51.07
2023-08-17T11:44:52.480Z,52.16
2023-08-17T11:45:52.509Z,51.28
2023-08-17T11:46:52.460Z,52.52
2023-08-17T11:47:52.514Z,52.83
2023-08-17T11:48:52.472Z,54.30
2023-08-17T11:49:54.778Z,51.79
2023-08-17T11:50:52.440Z,49.58
2023-08-17T11:51:52.424Z,52.23
2023-08-17T11:52:52.470Z,50.95
2023-08-17T11:53:52.441Z,52.20
2023-08-17T11:54:52.631Z,51.39
2023-08-17T11:56:53.391Z,51.02
2023-08-17T11:57:52.384Z,50.93
2023-08-17T11:58:52.391Z,52.44
2023-08-17T11:59:52.404Z,52.33
2023-08-17T12:00:53.088Z,51.51
2023-08-17T12:01:52.383Z,52.99
2023-08-17T12:02:52.401Z,51.55
2023-08-17T12:03:52.393Z,53.26
2023-08-17T12:04:52.354Z,52.12
2023-08-17T12:05:52.361Z,51.98
2023-08-17T12:06:52.330Z,52.59
2023-08-17T12:07:52.327Z,51.43
2023-08-17T12:08:52.343Z,51.42
2023-08-17T12:09:52.311Z,53.27
2023-08-17T12:10:52.300Z,54.19
2023-08-17T12:11:52.327Z,52.87
2023-08-17T12:12:52.328Z,53.86
2023-08-17T12:13:52.316Z,51.71
2023-08-17T12:14:52.283Z,53.40
2023-08-17T12:15:52.320Z,52.91
2023-08-17T12:16:52.275Z,50.92
2023-08-17T12:17:52.300Z,50.51
2023-08-17T12:18:52.271Z,50.79
2023-08-17T12:19:53.250Z,51.49
2023-08-17T12:20:52.239Z,51.45
2023-08-17T12:21:52.287Z,51.37
2023-08-17T12:22:52.256Z,50.83
2023-08-17T12:23:52.238Z,50.30
2023-08-17T12:24:52.255Z,51.36
2023-08-17T12:25:52.219Z,51.82
2023-08-17T12:26:53.788Z,51.97
2023-08-17T12:27:53.206Z,51.50
2023-08-17T12:28:52.197Z,53.19
2023-08-17T12:29:52.204Z,53.49
2023-08-17T12:30:52.198Z,59.53
2023-08-17T12:31:52.179Z,51.89
2023-08-17T12:32:52.240Z,51.31
2023-08-17T12:33:52.159Z,51.99
2023-08-17T12:34:52.164Z,52.38
2023-08-17T12:35:52.191Z,54.23
2023-08-17T12:36:52.145Z,52.34
2023-08-17T12:37:52.124Z,51.91
2023-08-17T12:38:52.116Z,51.49
2023-08-17T12:39:52.135Z,53.04
2023-08-17T12:40:52.120Z,53.70
2023-08-17T12:41:52.103Z,54.20
2023-08-17T12:42:52.107Z,55.48
2023-08-17T12:43:52.095Z,55.24
2023-08-17T12:44:52.088Z,51.58
2023-08-17T12:45:52.120Z,52.35
2023-08-17T12:46:52.097Z,51.80
2023-08-17T12:47:52.096Z,53.66
2023-08-17T12:48:52.060Z,52.19
2023-08-17T12:49:52.116Z,51.31
2023-08-17T12:50:52.057Z,53.23
2023-08-17T12:51:52.026Z,51.77
2023-08-17T12:52:52.030Z,51.63
2023-08-17T12:53:52.030Z,52.33
2023-08-17T12:54:52.906Z,50.64
2023-08-17T12:55:56.099Z,51.61